sensor_id;sensor_type;location;lat;lon;timestamp;temperature;humidity
56076;DHT22;41951;49.022;12.066;2023-02-04T00:00:26;6.40;99.90
56076;DHT22;41951;49.022;12.066;2023-02-04T00:02:53;6.40;99.90
56076;DHT22;41951;49.022;12.066;2023-02-04T00:05:18;6.40;99.90
56076;DHT22;41951;49.022;12.066;2023-02-04T00:07:46;6.40;99.90
56076;DHT22;41951;49.022;12.066;2023-02-04T00:10:11;6.40;99.90
56076;DHT22;41951;49.022;12.066;2023-02-04T00:12:37;6.30;99.90
56076;DHT22;41951;49.022;12.066;2023-02-04T00:15:03;6.30;99.90
56076;DHT22;41951;49.022;12.066;2023-02-04T00:17:28;6.30;99.90
56076;DHT22;41951;49.022;12.066;2023-02-04T00:19:54;6.30;99.90
56076;DHT22;41951;49.022;12.066;2023-02-04T00:22:20;6.30;99.90
56076;DHT22;41951;49.022;12.066;2023-02-04T00:24:45;6.30;99.90
56076;DHT22;41951;49.022;12.066;2023-02-04T00:27:14;6.30;99.90
56076;DHT22;41951;49.022;12.066;2023-02-04T00:29:40;6.30;99.90
56076;DHT22;41951;49.022;12.066;2023-02-04T00:32:05;6.30;99.90
56076;DHT22;41951;49.022;12.066;2023-02-04T00:34:31;6.30;99.90
56076;DHT22;41951;49.022;12.066;2023-02-04T00:36:56;6.30;99.90
56076;DHT22;41951;49.022;12.066;2023-02-04T00:39:22;6.20;99.90
56076;DHT22;41951;49.022;12.066;2023-02-04T00:41:47;6.20;99.90
56076;DHT22;41951;49.022;12.066;2023-02-04T00:44:13;6.20;99.90
56076;DHT22;41951;49.022;12.066;2023-02-04T00:46:40;6.20;99.90
56076;DHT22;41951;49.022;12.066;2023-02-04T00:49:05;6.20;99.90
56076;DHT22;41951;49.022;12.066;2023-02-04T00:51:35;6.20;99.90
56076;DHT22;41951;49.022;12.066;2023-02-04T00:54:01;6.20;99.90
56076;DHT22;41951;49.022;12.066;2023-02-04T00:56:26;6.20;99.90
56076;DHT22;41951;49.022;12.066;2023-02-04T00:58:52;6.10;99.90
56076;DHT22;41951;49.022;12.066;2023-02-04T01:01:17;6.10;99.90
56076;DHT22;41951;49.022;12.066;2023-02-04T01:03:43;6.10;99.90
56076;DHT22;41951;49.022;12.066;2023-02-04T01:06:09;6.10;99.90
56076;DHT22;41951;49.022;12.066;2023-02-04T01:08:35;6.10;99.90
56076;DHT22;41951;49.022;12.066;2023-02-04T01:11:01;6.10;99.90
56076;DHT22;41951;49.022;12.066;2023-02-04T01:13:26;6.10;99.90
56076;DHT22;41951;49.022;12.066;2023-02-04T01:15:52;6.10;99.90
56076;DHT22;41951;49.022;12.066;2023-02-04T01:18:17;6.00;99.90
56076;DHT22;41951;49.022;12.066;2023-02-04T01:20:43;6.00;99.90
56076;DHT22;41951;49.022;12.066;2023-02-04T01:23:08;6.10;99.90
56076;DHT22;41951;49.022;12.066;2023-02-04T01:25:34;6.00;99.90
56076;DHT22;41951;49.022;12.066;2023-02-04T01:28:00;6.00;99.90
56076;DHT22;41951;49.022;12.066;2023-02-04T01:30:25;6.00;99.90
56076;DHT22;41951;49.022;12.066;2023-02-04T01:32:51;6.00;99.90
56076;DHT22;41951;49.022;12.066;2023-02-04T01:35:16;6.00;99.90
56076;DHT22;41951;49.022;12.066;2023-02-04T01:37:42;5.90;99.90
56076;DHT22;41951;49.022;12.066;2023-02-04T01:40:09;6.00;99.90
56076;DHT22;41951;49.022;12.066;2023-02-04T01:42:35;5.90;99.90
56076;DHT22;41951;49.022;12.066;2023-02-04T01:45:01;5.90;99.90
56076;DHT22;41951;49.022;12.066;2023-02-04T01:47:27;5.90;99.90
56076;DHT22;41951;49.022;12.066;2023-02-04T01:49:54;5.90;99.90
56076;DHT22;41951;49.022;12.066;2023-02-04T01:52:21;5.90;99.90
56076;DHT22;41951;49.022;12.066;2023-02-04T01:54:47;5.90;99.90
56076;DHT22;41951;49.022;12.066;2023-02-04T01:57:15;5.80;99.90
56076;DHT22;41951;49.022;12.066;2023-02-04T01:59:45;5.80;99.90
56076;DHT22;41951;49.022;12.066;2023-02-04T02:05:01;5.80;99.90
56076;DHT22;41951;49.022;12.066;2023-02-04T02:07:27;5.80;99.90
56076;DHT22;41951;49.022;12.066;2023-02-04T02:09:52;5.80;99.90
56076;DHT22;41951;49.022;12.066;2023-02-04T02:12:18;5.80;99.90
56076;DHT22;41951;49.022;12.066;2023-02-04T02:14:44;5.80;99.90
56076;DHT22;41951;49.022;12.066;2023-02-04T02:17:09;5.80;99.90
56076;DHT22;41951;49.022;12.066;2023-02-04T02:19:36;5.80;99.90
56076;DHT22;41951;49.022;12.066;2023-02-04T02:22:06;5.80;99.90
56076;DHT22;41951;49.022;12.066;2023-02-04T02:24:35;5.80;99.90
56076;DHT22;41951;49.022;12.066;2023-02-04T02:27:04;5.80;99.90
56076;DHT22;41951;49.022;12.066;2023-02-04T02:29:31;5.80;99.90
56076;DHT22;41951;49.022;12.066;2023-02-04T02:31:57;5.80;99.90
56076;DHT22;41951;49.022;12.066;2023-02-04T02:34:24;5.80;99.90
56076;DHT22;41951;49.022;12.066;2023-02-04T02:36:50;5.80;99.90
56076;DHT22;41951;49.022;12.066;2023-02-04T02:39:16;5.80;99.90
56076;DHT22;41951;49.022;12.066;2023-02-04T02:41:42;5.80;99.90
56076;DHT22;41951;49.022;12.066;2023-02-04T02:44:10;5.80;99.90
56076;DHT22;41951;49.022;12.066;2023-02-04T02:46:36;5.80;99.90
56076;DHT22;41951;49.022;12.066;2023-02-04T02:49:02;5.80;99.90
56076;DHT22;41951;49.022;12.066;2023-02-04T02:51:28;5.80;99.90
56076;DHT22;41951;49.022;12.066;2023-02-04T02:53:54;5.80;99.90
56076;DHT22;41951;49.022;12.066;2023-02-04T02:56:19;5.70;99.90
56076;DHT22;41951;49.022;12.066;2023-02-04T02:58:45;5.70;99.90
56076;DHT22;41951;49.022;12.066;2023-02-04T03:01:11;5.70;99.90
56076;DHT22;41951;49.022;12.066;2023-02-04T03:03:48;5.70;99.90
56076;DHT22;41951;49.022;12.066;2023-02-04T03:06:18;5.70;99.90
56076;DHT22;41951;49.022;12.066;2023-02-04T03:08:46;5.70;99.90
56076;DHT22;41951;49.022;12.066;2023-02-04T03:11:13;5.70;99.90
56076;DHT22;41951;49.022;12.066;2023-02-04T03:13:39;5.60;99.90
56076;DHT22;41951;49.022;12.066;2023-02-04T03:16:06;5.60;99.90
56076;DHT22;41951;49.022;12.066;2023-02-04T03:18:32;5.60;99.90
56076;DHT22;41951;49.022;12.066;2023-02-04T03:20:59;5.60;99.90
56076;DHT22;41951;49.022;12.066;2023-02-04T03:23:24;5.60;99.90
56076;DHT22;41951;49.022;12.066;2023-02-04T03:25:51;5.60;99.90
56076;DHT22;41951;49.022;12.066;2023-02-04T03:28:17;5.60;99.90
56076;DHT22;41951;49.022;12.066;2023-02-04T03:30:43;5.60;99.90
56076;DHT22;41951;49.022;12.066;2023-02-04T03:33:09;5.60;99.90
56076;DHT22;41951;49.022;12.066;2023-02-04T03:35:34;5.60;99.90
56076;DHT22;41951;49.022;12.066;2023-02-04T03:38:00;5.60;99.90
56076;DHT22;41951;49.022;12.066;2023-02-04T03:40:25;5.60;99.90
56076;DHT22;41951;49.022;12.066;2023-02-04T03:42:51;5.60;99.90
56076;DHT22;41951;49.022;12.066;2023-02-04T03:45:16;5.60;99.90
56076;DHT22;41951;49.022;12.066;2023-02-04T03:47:42;5.60;99.90
56076;DHT22;41951;49.022;12.066;2023-02-04T03:50:08;5.60;99.90
56076;DHT22;41951;49.022;12.066;2023-02-04T03:52:36;5.50;99.90
56076;DHT22;41951;49.022;12.066;2023-02-04T03:55:02;5.50;99.90
56076;DHT22;41951;49.022;12.066;2023-02-04T03:57:27;5.50;99.90
56076;DHT22;41951;49.022;12.066;2023-02-04T03:59:53;5.50;99.90
56076;DHT22;41951;49.022;12.066;2023-02-04T04:02:18;5.50;99.90
56076;DHT22;41951;49.022;12.066;2023-02-04T04:04:44;5.40;99.90
56076;DHT22;41951;49.022;12.066;2023-02-04T04:07:09;5.40;99.90
56076;DHT22;41951;49.022;12.066;2023-02-04T04:09:35;5.40;99.90
56076;DHT22;41951;49.022;12.066;2023-02-04T04:12:01;5.40;99.90
56076;DHT22;41951;49.022;12.066;2023-02-04T04:14:28;5.40;99.90
56076;DHT22;41951;49.022;12.066;2023-02-04T04:16:54;5.40;99.90
56076;DHT22;41951;49.022;12.066;2023-02-04T04:19:19;5.30;99.90
56076;DHT22;41951;49.022;12.066;2023-02-04T04:21:45;5.30;99.90
56076;DHT22;41951;49.022;12.066;2023-02-04T04:24:10;5.40;99.90
56076;DHT22;41951;49.022;12.066;2023-02-04T04:26:36;5.30;99.90
56076;DHT22;41951;49.022;12.066;2023-02-04T04:29:01;5.30;99.90
56076;DHT22;41951;49.022;12.066;2023-02-04T04:31:27;5.30;99.90
56076;DHT22;41951;49.022;12.066;2023-02-04T04:33:52;5.30;99.90
56076;DHT22;41951;49.022;12.066;2023-02-04T04:36:18;5.30;99.90
56076;DHT22;41951;49.022;12.066;2023-02-04T04:38:43;5.30;99.90
56076;DHT22;41951;49.022;12.066;2023-02-04T04:41:09;5.30;99.90
56076;DHT22;41951;49.022;12.066;2023-02-04T04:43:34;5.20;99.90
56076;DHT22;41951;49.022;12.066;2023-02-04T04:46:00;5.20;99.90
56076;DHT22;41951;49.022;12.066;2023-02-04T04:48:26;5.20;99.90
56076;DHT22;41951;49.022;12.066;2023-02-04T04:50:51;5.20;99.90
56076;DHT22;41951;49.022;12.066;2023-02-04T04:53:17;5.20;99.90
56076;DHT22;41951;49.022;12.066;2023-02-04T04:55:42;5.20;99.90
56076;DHT22;41951;49.022;12.066;2023-02-04T04:58:08;5.20;99.90
56076;DHT22;41951;49.022;12.066;2023-02-04T05:00:34;5.20;99.90
56076;DHT22;41951;49.022;12.066;2023-02-04T05:02:59;5.30;99.90
56076;DHT22;41951;49.022;12.066;2023-02-04T05:05:25;5.30;99.90
56076;DHT22;41951;49.022;12.066;2023-02-04T05:07:51;5.30;99.90
56076;DHT22;41951;49.022;12.066;2023-02-04T05:10:18;5.20;99.90
56076;DHT22;41951;49.022;12.066;2023-02-04T05:12:44;5.20;99.90
56076;DHT22;41951;49.022;12.066;2023-02-04T05:15:09;5.20;99.90
56076;DHT22;41951;49.022;12.066;2023-02-04T05:17:35;5.20;99.90
56076;DHT22;41951;49.022;12.066;2023-02-04T05:20:01;5.20;99.90
56076;DHT22;41951;49.022;12.066;2023-02-04T05:22:26;5.20;99.90
56076;DHT22;41951;49.022;12.066;2023-02-04T05:24:52;5.20;99.90
56076;DHT22;41951;49.022;12.066;2023-02-04T05:27:17;5.20;99.90
56076;DHT22;41951;49.022;12.066;2023-02-04T05:29:43;5.10;99.90
56076;DHT22;41951;49.022;12.066;2023-02-04T05:32:08;5.20;99.90
56076;DHT22;41951;49.022;12.066;2023-02-04T05:34:34;5.20;99.90
56076;DHT22;41951;49.022;12.066;2023-02-04T05:37:00;5.10;99.90
56076;DHT22;41951;49.022;12.066;2023-02-04T05:39:27;5.10;99.90
56076;DHT22;41951;49.022;12.066;2023-02-04T05:41:52;5.00;99.90
56076;DHT22;41951;49.022;12.066;2023-02-04T05:44:18;4.80;99.90
56076;DHT22;41951;49.022;12.066;2023-02-04T05:46:43;4.50;99.90
56076;DHT22;41951;49.022;12.066;2023-02-04T05:49:09;4.30;99.90
56076;DHT22;41951;49.022;12.066;2023-02-04T05:51:34;4.10;99.90
56076;DHT22;41951;49.022;12.066;2023-02-04T05:54:00;4.00;99.90
56076;DHT22;41951;49.022;12.066;2023-02-04T05:56:25;3.90;99.90
56076;DHT22;41951;49.022;12.066;2023-02-04T05:58:51;3.80;99.90
56076;DHT22;41951;49.022;12.066;2023-02-04T06:01:16;3.80;99.90
56076;DHT22;41951;49.022;12.066;2023-02-04T06:03:42;3.50;99.90
56076;DHT22;41951;49.022;12.066;2023-02-04T06:06:08;3.50;99.90
56076;DHT22;41951;49.022;12.066;2023-02-04T06:08:33;3.50;99.90
56076;DHT22;41951;49.022;12.066;2023-02-04T06:10:59;3.50;99.90
56076;DHT22;41951;49.022;12.066;2023-02-04T06:13:24;3.40;99.90
56076;DHT22;41951;49.022;12.066;2023-02-04T06:15:50;3.40;99.90
56076;DHT22;41951;49.022;12.066;2023-02-04T06:18:15;3.40;99.90
56076;DHT22;41951;49.022;12.066;2023-02-04T06:20:41;3.50;99.90
56076;DHT22;41951;49.022;12.066;2023-02-04T06:23:07;3.40;99.90
56076;DHT22;41951;49.022;12.066;2023-02-04T06:25:32;3.40;99.90
56076;DHT22;41951;49.022;12.066;2023-02-04T06:27:58;3.40;99.90
56076;DHT22;41951;49.022;12.066;2023-02-04T06:30:23;3.40;99.90
56076;DHT22;41951;49.022;12.066;2023-02-04T06:32:49;3.40;99.90
56076;DHT22;41951;49.022;12.066;2023-02-04T06:35:14;3.30;99.90
56076;DHT22;41951;49.022;12.066;2023-02-04T06:37:41;3.30;99.90
56076;DHT22;41951;49.022;12.066;2023-02-04T06:40:07;3.40;99.90
56076;DHT22;41951;49.022;12.066;2023-02-04T06:42:33;3.40;99.90
56076;DHT22;41951;49.022;12.066;2023-02-04T06:44:58;3.50;99.90
56076;DHT22;41951;49.022;12.066;2023-02-04T06:47:24;3.50;99.90
56076;DHT22;41951;49.022;12.066;2023-02-04T06:49:50;3.50;99.90
56076;DHT22;41951;49.022;12.066;2023-02-04T06:52:15;3.50;99.90
56076;DHT22;41951;49.022;12.066;2023-02-04T06:54:41;3.50;99.90
56076;DHT22;41951;49.022;12.066;2023-02-04T06:57:06;3.50;99.90
56076;DHT22;41951;49.022;12.066;2023-02-04T06:59:37;3.60;99.90
56076;DHT22;41951;49.022;12.066;2023-02-04T07:02:04;3.60;99.90
56076;DHT22;41951;49.022;12.066;2023-02-04T07:04:30;3.60;99.90
56076;DHT22;41951;49.022;12.066;2023-02-04T07:06:56;3.60;99.90
56076;DHT22;41951;49.022;12.066;2023-02-04T07:09:21;3.60;99.90
56076;DHT22;41951;49.022;12.066;2023-02-04T07:11:47;3.70;99.90
56076;DHT22;41951;49.022;12.066;2023-02-04T07:14:13;3.70;99.90
56076;DHT22;41951;49.022;12.066;2023-02-04T07:16:38;3.70;99.90
56076;DHT22;41951;49.022;12.066;2023-02-04T07:19:04;3.60;99.90
56076;DHT22;41951;49.022;12.066;2023-02-04T07:21:29;3.50;99.90
56076;DHT22;41951;49.022;12.066;2023-02-04T07:23:55;3.50;99.90
56076;DHT22;41951;49.022;12.066;2023-02-04T07:26:21;3.50;99.90
56076;DHT22;41951;49.022;12.066;2023-02-04T07:28:47;3.50;99.90
56076;DHT22;41951;49.022;12.066;2023-02-04T07:31:13;3.50;99.90
56076;DHT22;41951;49.022;12.066;2023-02-04T07:33:39;3.40;99.90
56076;DHT22;41951;49.022;12.066;2023-02-04T07:36:05;3.40;99.90
56076;DHT22;41951;49.022;12.066;2023-02-04T07:38:30;3.50;99.90
56076;DHT22;41951;49.022;12.066;2023-02-04T07:40:56;3.50;99.90
56076;DHT22;41951;49.022;12.066;2023-02-04T07:43:21;3.50;99.90
56076;DHT22;41951;49.022;12.066;2023-02-04T07:45:47;4.50;99.90
56076;DHT22;41951;49.022;12.066;2023-02-04T07:48:13;3.60;99.90
56076;DHT22;41951;49.022;12.066;2023-02-04T07:50:38;3.70;99.90
56076;DHT22;41951;49.022;12.066;2023-02-04T07:53:04;3.70;99.90
56076;DHT22;41951;49.022;12.066;2023-02-04T07:55:30;3.70;99.90
56076;DHT22;41951;49.022;12.066;2023-02-04T07:57:55;3.70;99.90
56076;DHT22;41951;49.022;12.066;2023-02-04T08:00:21;3.70;99.90
56076;DHT22;41951;49.022;12.066;2023-02-04T08:02:47;3.70;99.90
56076;DHT22;41951;49.022;12.066;2023-02-04T08:05:13;3.70;99.90
56076;DHT22;41951;49.022;12.066;2023-02-04T08:10:11;3.70;99.90
56076;DHT22;41951;49.022;12.066;2023-02-04T08:12:37;3.70;99.90
56076;DHT22;41951;49.022;12.066;2023-02-04T08:15:03;3.60;99.90
56076;DHT22;41951;49.022;12.066;2023-02-04T08:17:29;3.60;99.90
56076;DHT22;41951;49.022;12.066;2023-02-04T08:19:54;3.60;99.90
56076;DHT22;41951;49.022;12.066;2023-02-04T08:22:21;3.70;99.90
56076;DHT22;41951;49.022;12.066;2023-02-04T08:24:46;3.70;99.90
56076;DHT22;41951;49.022;12.066;2023-02-04T08:27:12;3.70;99.90
56076;DHT22;41951;49.022;12.066;2023-02-04T08:29:37;3.70;99.90
56076;DHT22;41951;49.022;12.066;2023-02-04T08:32:03;3.80;99.90
56076;DHT22;41951;49.022;12.066;2023-02-04T08:34:29;3.80;99.90
56076;DHT22;41951;49.022;12.066;2023-02-04T08:36:55;3.80;99.90
56076;DHT22;41951;49.022;12.066;2023-02-04T08:39:21;3.80;99.90
56076;DHT22;41951;49.022;12.066;2023-02-04T08:41:47;3.90;99.90
56076;DHT22;41951;49.022;12.066;2023-02-04T08:44:16;3.80;99.90
56076;DHT22;41951;49.022;12.066;2023-02-04T08:46:41;3.90;99.90
56076;DHT22;41951;49.022;12.066;2023-02-04T08:49:07;4.00;99.90
56076;DHT22;41951;49.022;12.066;2023-02-04T08:51:33;4.10;99.90
56076;DHT22;41951;49.022;12.066;2023-02-04T08:53:58;4.10;99.90
56076;DHT22;41951;49.022;12.066;2023-02-04T08:56:24;4.10;99.90
56076;DHT22;41951;49.022;12.066;2023-02-04T08:58:49;4.20;99.90
56076;DHT22;41951;49.022;12.066;2023-02-04T09:01:17;4.20;99.90
56076;DHT22;41951;49.022;12.066;2023-02-04T09:03:43;4.20;99.90
56076;DHT22;41951;49.022;12.066;2023-02-04T09:06:09;4.30;99.90
56076;DHT22;41951;49.022;12.066;2023-02-04T09:08:35;4.20;99.90
56076;DHT22;41951;49.022;12.066;2023-02-04T09:11:01;4.30;99.90
56076;DHT22;41951;49.022;12.066;2023-02-04T09:13:26;4.20;99.90
56076;DHT22;41951;49.022;12.066;2023-02-04T09:15:52;4.30;99.90
56076;DHT22;41951;49.022;12.066;2023-02-04T09:18:18;4.40;99.90
56076;DHT22;41951;49.022;12.066;2023-02-04T09:20:50;4.40;99.90
56076;DHT22;41951;49.022;12.066;2023-02-04T09:23:16;4.40;99.90
56076;DHT22;41951;49.022;12.066;2023-02-04T09:25:43;4.50;99.90
56076;DHT22;41951;49.022;12.066;2023-02-04T09:28:10;4.50;99.90
56076;DHT22;41951;49.022;12.066;2023-02-04T09:30:37;4.60;99.90
56076;DHT22;41951;49.022;12.066;2023-02-04T09:33:03;4.60;99.90
56076;DHT22;41951;49.022;12.066;2023-02-04T09:35:29;4.60;99.90
56076;DHT22;41951;49.022;12.066;2023-02-04T09:37:54;4.60;99.90
56076;DHT22;41951;49.022;12.066;2023-02-04T09:40:20;4.60;99.90
56076;DHT22;41951;49.022;12.066;2023-02-04T09:42:47;4.60;99.90
56076;DHT22;41951;49.022;12.066;2023-02-04T09:45:31;4.50;99.90
56076;DHT22;41951;49.022;12.066;2023-02-04T09:47:58;4.60;99.90
56076;DHT22;41951;49.022;12.066;2023-02-04T09:50:26;4.60;99.90
56076;DHT22;41951;49.022;12.066;2023-02-04T09:52:55;4.70;99.90
56076;DHT22;41951;49.022;12.066;2023-02-04T09:55:26;4.70;99.90
56076;DHT22;41951;49.022;12.066;2023-02-04T09:57:52;5.90;99.90
56076;DHT22;41951;49.022;12.066;2023-02-04T10:00:21;4.60;99.90
56076;DHT22;41951;49.022;12.066;2023-02-04T10:02:47;4.50;99.90
56076;DHT22;41951;49.022;12.066;2023-02-04T10:05:28;4.50;99.90
56076;DHT22;41951;49.022;12.066;2023-02-04T10:07:54;4.50;99.90
56076;DHT22;41951;49.022;12.066;2023-02-04T10:10:22;4.80;99.90
56076;DHT22;41951;49.022;12.066;2023-02-04T10:12:51;4.70;99.90
56076;DHT22;41951;49.022;12.066;2023-02-04T10:15:18;4.70;99.90
56076;DHT22;41951;49.022;12.066;2023-02-04T10:17:48;4.80;99.90
56076;DHT22;41951;49.022;12.066;2023-02-04T10:20:17;4.80;99.90
56076;DHT22;41951;49.022;12.066;2023-02-04T10:22:43;4.90;99.90
56076;DHT22;41951;49.022;12.066;2023-02-04T10:25:17;5.00;99.90
56076;DHT22;41951;49.022;12.066;2023-02-04T10:27:52;5.00;99.90
56076;DHT22;41951;49.022;12.066;2023-02-04T10:30:24;4.90;99.90
56076;DHT22;41951;49.022;12.066;2023-02-04T10:32:50;4.80;99.90
56076;DHT22;41951;49.022;12.066;2023-02-04T10:35:17;4.80;99.90
56076;DHT22;41951;49.022;12.066;2023-02-04T10:37:43;4.80;99.90
56076;DHT22;41951;49.022;12.066;2023-02-04T10:40:34;4.90;99.90
56076;DHT22;41951;49.022;12.066;2023-02-04T10:43:17;4.70;99.90
56076;DHT22;41951;49.022;12.066;2023-02-04T10:45:47;4.70;99.90
56076;DHT22;41951;49.022;12.066;2023-02-04T10:48:17;4.70;99.90
56076;DHT22;41951;49.022;12.066;2023-02-04T10:50:44;4.70;99.90
56076;DHT22;41951;49.022;12.066;2023-02-04T10:53:11;5.40;99.90
56076;DHT22;41951;49.022;12.066;2023-02-04T10:55:57;4.90;99.90
56076;DHT22;41951;49.022;12.066;2023-02-04T10:58:26;4.90;99.90
56076;DHT22;41951;49.022;12.066;2023-02-04T11:00:52;4.90;99.90
56076;DHT22;41951;49.022;12.066;2023-02-04T11:03:22;4.90;99.90
56076;DHT22;41951;49.022;12.066;2023-02-04T11:05:48;4.90;99.90
56076;DHT22;41951;49.022;12.066;2023-02-04T11:08:23;4.90;99.90
56076;DHT22;41951;49.022;12.066;2023-02-04T11:10:54;5.00;99.90
56076;DHT22;41951;49.022;12.066;2023-02-04T11:13:26;4.90;99.90
56076;DHT22;41951;49.022;12.066;2023-02-04T11:16:26;4.80;99.90
56076;DHT22;41951;49.022;12.066;2023-02-04T11:18:55;4.80;99.90
56076;DHT22;41951;49.022;12.066;2023-02-04T11:24:16;4.80;99.90
56076;DHT22;41951;49.022;12.066;2023-02-04T11:27:18;4.90;99.90
56076;DHT22;41951;49.022;12.066;2023-02-04T11:29:45;4.90;99.90
56076;DHT22;41951;49.022;12.066;2023-02-04T11:37:40;5.20;99.90
56076;DHT22;41951;49.022;12.066;2023-02-04T11:40:30;5.20;99.90
56076;DHT22;41951;49.022;12.066;2023-02-04T11:43:17;5.20;99.90
56076;DHT22;41951;49.022;12.066;2023-02-04T11:45:42;5.30;99.90
56076;DHT22;41951;49.022;12.066;2023-02-04T11:48:17;5.20;99.90
56076;DHT22;41951;49.022;12.066;2023-02-04T11:50:54;5.20;99.90
56076;DHT22;41951;49.022;12.066;2023-02-04T11:53:23;5.20;99.90
56076;DHT22;41951;49.022;12.066;2023-02-04T11:55:49;5.20;99.90
56076;DHT22;41951;49.022;12.066;2023-02-04T11:58:17;5.20;99.90
56076;DHT22;41951;49.022;12.066;2023-02-04T12:00:43;5.20;99.90
56076;DHT22;41951;49.022;12.066;2023-02-04T12:03:25;5.30;99.90
56076;DHT22;41951;49.022;12.066;2023-02-04T12:05:51;5.40;99.90
56076;DHT22;41951;49.022;12.066;2023-02-04T12:10:49;5.60;99.90
56076;DHT22;41951;49.022;12.066;2023-02-04T12:13:20;5.60;99.90
56076;DHT22;41951;49.022;12.066;2023-02-04T12:16:13;5.60;99.90
56076;DHT22;41951;49.022;12.066;2023-02-04T12:18:38;5.50;99.90
56076;DHT22;41951;49.022;12.066;2023-02-04T12:21:04;5.40;99.90
56076;DHT22;41951;49.022;12.066;2023-02-04T12:23:30;5.40;99.90
56076;DHT22;41951;49.022;12.066;2023-02-04T12:25:56;5.40;99.90
56076;DHT22;41951;49.022;12.066;2023-02-04T12:28:22;5.40;99.90
56076;DHT22;41951;49.022;12.066;2023-02-04T12:30:48;5.50;99.90
56076;DHT22;41951;49.022;12.066;2023-02-04T12:33:16;5.60;99.90
56076;DHT22;41951;49.022;12.066;2023-02-04T12:35:42;5.60;99.90
56076;DHT22;41951;49.022;12.066;2023-02-04T12:38:08;5.40;99.90
56076;DHT22;41951;49.022;12.066;2023-02-04T12:40:34;5.50;99.90
56076;DHT22;41951;49.022;12.066;2023-02-04T12:43:00;5.60;99.90
56076;DHT22;41951;49.022;12.066;2023-02-04T12:45:26;5.40;99.90
56076;DHT22;41951;49.022;12.066;2023-02-04T12:47:51;5.50;99.90
56076;DHT22;41951;49.022;12.066;2023-02-04T12:50:17;5.50;99.90
56076;DHT22;41951;49.022;12.066;2023-02-04T12:52:54;5.50;99.90
56076;DHT22;41951;49.022;12.066;2023-02-04T12:55:21;5.60;99.90
56076;DHT22;41951;49.022;12.066;2023-02-04T12:57:48;5.70;99.90
56076;DHT22;41951;49.022;12.066;2023-02-04T13:00:15;5.80;99.90
56076;DHT22;41951;49.022;12.066;2023-02-04T13:02:42;5.90;99.90
56076;DHT22;41951;49.022;12.066;2023-02-04T13:05:08;6.00;99.90
56076;DHT22;41951;49.022;12.066;2023-02-04T13:07:34;6.10;99.90
56076;DHT22;41951;49.022;12.066;2023-02-04T13:10:00;6.30;99.90
56076;DHT22;41951;49.022;12.066;2023-02-04T13:12:25;6.50;99.90
56076;DHT22;41951;49.022;12.066;2023-02-04T13:14:51;6.60;99.90
56076;DHT22;41951;49.022;12.066;2023-02-04T13:17:17;7.00;99.90
56076;DHT22;41951;49.022;12.066;2023-02-04T13:19:42;9.10;99.90
56076;DHT22;41951;49.022;12.066;2023-02-04T13:22:08;11.40;96.10
56076;DHT22;41951;49.022;12.066;2023-02-04T13:24:34;11.00;93.50
56076;DHT22;41951;49.022;12.066;2023-02-04T13:26:59;11.70;92.70
56076;DHT22;41951;49.022;12.066;2023-02-04T13:29:25;15.10;90.60
56076;DHT22;41951;49.022;12.066;2023-02-04T13:31:51;18.60;73.00
56076;DHT22;41951;49.022;12.066;2023-02-04T13:34:17;20.70;65.20
56076;DHT22;41951;49.022;12.066;2023-02-04T13:36:43;22.30;59.80
56076;DHT22;41951;49.022;12.066;2023-02-04T13:39:10;23.50;56.10
56076;DHT22;41951;49.022;12.066;2023-02-04T13:41:35;22.40;52.20
56076;DHT22;41951;49.022;12.066;2023-02-04T13:44:02;21.00;53.70
56076;DHT22;41951;49.022;12.066;2023-02-04T13:46:28;18.10;54.40
56076;DHT22;41951;49.022;12.066;2023-02-04T13:48:54;15.30;58.00
56076;DHT22;41951;49.022;12.066;2023-02-04T13:51:20;13.30;61.10
56076;DHT22;41951;49.022;12.066;2023-02-04T13:53:45;11.20;64.40
56076;DHT22;41951;49.022;12.066;2023-02-04T13:56:11;10.20;67.10
56076;DHT22;41951;49.022;12.066;2023-02-04T13:58:36;9.20;70.10
56076;DHT22;41951;49.022;12.066;2023-02-04T14:01:02;9.50;72.70
56076;DHT22;41951;49.022;12.066;2023-02-04T14:03:29;7.80;73.70
56076;DHT22;41951;49.022;12.066;2023-02-04T14:05:55;7.30;74.80
56076;DHT22;41951;49.022;12.066;2023-02-04T14:08:21;6.90;77.30
56076;DHT22;41951;49.022;12.066;2023-02-04T14:10:47;6.70;78.70
56076;DHT22;41951;49.022;12.066;2023-02-04T14:13:13;6.60;79.70
56076;DHT22;41951;49.022;12.066;2023-02-04T14:15:39;6.40;81.40
56076;DHT22;41951;49.022;12.066;2023-02-04T14:18:08;6.40;82.60
56076;DHT22;41951;49.022;12.066;2023-02-04T14:20:34;6.30;84.60
56076;DHT22;41951;49.022;12.066;2023-02-04T14:23:00;6.40;85.80
56076;DHT22;41951;49.022;12.066;2023-02-04T14:25:26;6.40;88.60
56076;DHT22;41951;49.022;12.066;2023-02-04T14:27:52;6.40;90.90
56076;DHT22;41951;49.022;12.066;2023-02-04T14:30:24;6.40;91.30
56076;DHT22;41951;49.022;12.066;2023-02-04T14:32:50;6.20;92.20
56076;DHT22;41951;49.022;12.066;2023-02-04T14:35:16;6.10;93.00
56076;DHT22;41951;49.022;12.066;2023-02-04T14:37:42;6.00;94.20
56076;DHT22;41951;49.022;12.066;2023-02-04T14:40:08;6.00;94.00
56076;DHT22;41951;49.022;12.066;2023-02-04T14:42:34;5.90;94.40
56076;DHT22;41951;49.022;12.066;2023-02-04T14:45:01;5.70;94.70
56076;DHT22;41951;49.022;12.066;2023-02-04T14:47:34;5.50;95.70
56076;DHT22;41951;49.022;12.066;2023-02-04T14:50:00;5.50;96.30
56076;DHT22;41951;49.022;12.066;2023-02-04T14:52:25;5.40;96.80
56076;DHT22;41951;49.022;12.066;2023-02-04T14:54:51;5.40;97.20
56076;DHT22;41951;49.022;12.066;2023-02-04T14:57:17;5.80;97.70
56076;DHT22;41951;49.022;12.066;2023-02-04T14:59:42;5.30;98.20
56076;DHT22;41951;49.022;12.066;2023-02-04T15:02:09;5.30;98.50
56076;DHT22;41951;49.022;12.066;2023-02-04T15:04:35;5.20;98.90
56076;DHT22;41951;49.022;12.066;2023-02-04T15:07:02;5.20;98.80
56076;DHT22;41951;49.022;12.066;2023-02-04T15:09:28;5.20;99.30
56076;DHT22;41951;49.022;12.066;2023-02-04T15:11:54;5.20;99.30
56076;DHT22;41951;49.022;12.066;2023-02-04T15:14:20;5.10;99.60
56076;DHT22;41951;49.022;12.066;2023-02-04T15:16:46;5.10;99.70
56076;DHT22;41951;49.022;12.066;2023-02-04T15:19:14;4.90;99.90
56076;DHT22;41951;49.022;12.066;2023-02-04T15:21:39;5.00;99.90
56076;DHT22;41951;49.022;12.066;2023-02-04T15:24:05;5.00;99.90
56076;DHT22;41951;49.022;12.066;2023-02-04T15:26:31;4.90;99.90
56076;DHT22;41951;49.022;12.066;2023-02-04T15:28:57;5.40;99.90
56076;DHT22;41951;49.022;12.066;2023-02-04T15:31:23;5.00;99.90
56076;DHT22;41951;49.022;12.066;2023-02-04T15:33:49;4.90;99.90
56076;DHT22;41951;49.022;12.066;2023-02-04T15:36:15;4.80;99.90
56076;DHT22;41951;49.022;12.066;2023-02-04T15:38:41;4.70;99.90
56076;DHT22;41951;49.022;12.066;2023-02-04T15:41:07;4.60;99.90
56076;DHT22;41951;49.022;12.066;2023-02-04T15:43:32;4.60;99.90